Time;durP1;ratioP1;P1;durP2;ratioP2;P2;SDS_P1;SDS_P2;PMS_P1;PMS_P2;Temp;Humidity;BMP_temperature;BMP_pressure;BME280_temperature;BME280_humidity;BME280_pressure;Samples;Min_cycle;Max_cycle;Signal;HPM_P1;HPM_P2
2022/06/13 00:00:00;;;;;;;;;;;27.70;36.50;;;;;;5098364;28;970;-39
2022/06/13 00:02:27;;;;;;;;;;;27.70;36.60;;;;;;5098983;28;984;-39
2022/06/13 00:04:54;;;;;;;;;;;27.70;36.30;;;;;;5098090;28;975;-39
2022/06/13 00:07:20;;;;;;;;;;;27.70;36.60;;;;;;5097811;28;891;-39
2022/06/13 00:09:48;;;;;;;;;;;27.70;36.40;;;;;;5099478;28;880;-39
2022/06/13 00:12:15;;;;;;;;;;;27.70;36.30;;;;;;5097558;28;951;-40
2022/06/13 00:14:42;;;;;;;;;;;27.70;36.30;;;;;;5099085;28;944;-39
2022/06/13 00:17:08;;;;;;;;;;;27.70;36.50;;;;;;5097927;28;1897;-39
2022/06/13 00:19:35;;;;;;;;;;;27.70;36.40;;;;;;5098204;28;1006;-40
2022/06/13 00:22:03;;;;;;;;;;;27.70;36.40;;;;;;5098070;28;1035;-40
2022/06/13 00:24:30;;;;;;;;;;;27.70;36.00;;;;;;5098393;28;935;-35
2022/06/13 00:26:58;;;;;;;;;;;27.60;36.50;;;;;;5098734;28;939;-36
2022/06/13 00:29:24;;;;;;;;;;;27.70;36.50;;;;;;5097718;28;1029;-35
2022/06/13 00:31:51;;;;;;;;;;;27.70;36.50;;;;;;5098887;28;1018;-33
2022/06/13 00:34:18;;;;;;;;;;;27.70;36.70;;;;;;5098462;28;942;-35
2022/06/13 00:36:44;;;;;;;;;;;27.60;36.80;;;;;;5097694;28;2012;-34
2022/06/13 00:39:11;;;;;;;;;;;27.50;37.00;;;;;;5099261;28;999;-34
2022/06/13 00:41:40;;;;;;;;;;;27.40;36.80;;;;;;5097126;28;943;-35
2022/06/13 00:44:17;;;;;;;;;;;27.40;36.80;;;;;;5098313;28;1024;-33
2022/06/13 00:46:44;;;;;;;;;;;27.40;36.90;;;;;;5098389;28;978;-33
2022/06/13 00:49:12;;;;;;;;;;;27.40;37.10;;;;;;5097679;28;932;-33
2022/06/13 00:51:42;;;;;;;;;;;27.40;37.00;;;;;;5098491;28;942;-34
2022/06/13 00:54:09;;;;;;;;;;;27.40;37.20;;;;;;5097585;28;968;-34
2022/06/13 00:56:37;;;;;;;;;;;27.40;37.10;;;;;;5097353;28;1988;-32
2022/06/13 00:59:05;;;;;;;;;;;27.40;37.30;;;;;;5098187;28;990;-32
2022/06/13 01:01:34;;;;;;;;;;;27.40;37.20;;;;;;5097079;28;960;-35
2022/06/13 01:04:02;;;;;;;;;;;27.40;37.30;;;;;;5097507;28;1122;-34
2022/06/13 01:06:31;;;;;;;;;;;27.30;37.40;;;;;;5096861;28;868;-33
2022/06/13 01:08:57;;;;;;;;;;;27.40;37.70;;;;;;5097733;28;1106;-34
2022/06/13 01:11:25;;;;;;;;;;;27.40;37.50;;;;;;5097471;28;933;-34
2022/06/13 01:14:05;;;;;;;;;;;27.40;37.70;;;;;;5097368;28;998;-34
2022/06/13 01:16:36;;;;;;;;;;;27.40;37.50;;;;;;5096385;28;1909;-33
2022/06/13 01:19:22;;;;;;;;;;;27.40;37.50;;;;;;5097307;28;939;-34
2022/06/13 01:21:55;;;;;;;;;;;27.40;37.60;;;;;;5097113;28;1003;-34
2022/06/13 01:24:39;;;;;;;;;;;27.40;37.70;;;;;;5096507;28;1026;-34
2022/06/13 01:27:31;;;;;;;;;;;27.40;37.60;;;;;;5093701;28;1323;-35
2022/06/13 01:30:00;;;;;;;;;;;27.40;37.70;;;;;;5096832;28;1002;-34
2022/06/13 01:32:33;;;;;;;;;;;27.40;37.60;;;;;;5096962;28;975;-35
2022/06/13 01:35:14;;;;;;;;;;;27.30;37.80;;;;;;5097374;28;992;-35
2022/06/13 01:37:45;;;;;;;;;;;27.40;37.90;;;;;;5097174;28;1990;-35
2022/06/13 01:40:16;;;;;;;;;;;27.40;38.00;;;;;;5097075;28;955;-33
2022/06/13 01:42:46;;;;;;;;;;;27.40;37.90;;;;;;5096686;28;971;-34
2022/06/13 01:45:17;;;;;;;;;;;27.40;37.80;;;;;;5097071;28;943;-35
2022/06/13 01:47:50;;;;;;;;;;;27.30;37.90;;;;;;5097934;28;1018;-33
2022/06/13 01:50:20;;;;;;;;;;;27.30;38.00;;;;;;5097353;28;966;-34
2022/06/13 01:52:50;;;;;;;;;;;27.30;37.90;;;;;;5097522;28;1010;-33
2022/06/13 01:55:22;;;;;;;;;;;27.30;38.00;;;;;;5096978;28;1049;-35
2022/06/13 01:57:51;;;;;;;;;;;27.40;38.00;;;;;;5097569;28;1905;-33
2022/06/13 02:00:20;;;;;;;;;;;27.40;38.00;;;;;;5097060;28;939;-34
2022/06/13 02:02:51;;;;;;;;;;;27.40;38.10;;;;;;5097143;28;988;-34
2022/06/13 02:05:20;;;;;;;;;;;27.40;38.00;;;;;;5096670;28;987;-37
2022/06/13 02:07:48;;;;;;;;;;;27.50;38.00;;;;;;5097484;28;946;-34
2022/06/13 02:10:18;;;;;;;;;;;27.40;38.10;;;;;;5096698;28;1015;-33
2022/06/13 02:12:47;;;;;;;;;;;27.40;38.00;;;;;;5098633;28;923;-34
2022/06/13 02:15:15;;;;;;;;;;;27.40;38.40;;;;;;5096670;28;947;-33
2022/06/13 02:17:45;;;;;;;;;;;27.40;38.20;;;;;;5096536;28;1914;-35
2022/06/13 02:20:15;;;;;;;;;;;27.40;38.20;;;;;;5097169;28;1012;-34
2022/06/13 02:22:43;;;;;;;;;;;27.40;38.20;;;;;;5096812;28;1000;-33
2022/06/13 02:25:12;;;;;;;;;;;27.40;38.20;;;;;;5096719;28;994;-33
2022/06/13 02:27:40;;;;;;;;;;;27.30;38.30;;;;;;5096506;28;1023;-35
2022/06/13 02:30:10;;;;;;;;;;;27.40;38.20;;;;;;5096093;28;911;-34
2022/06/13 02:32:39;;;;;;;;;;;27.40;38.30;;;;;;5096536;28;917;-36
2022/06/13 02:35:10;;;;;;;;;;;27.50;38.20;;;;;;5096229;28;1011;-34
2022/06/13 02:37:40;;;;;;;;;;;27.50;38.20;;;;;;5096473;28;1922;-34
2022/06/13 02:40:10;;;;;;;;;;;27.40;38.20;;;;;;5096162;28;1037;-37
2022/06/13 02:42:39;;;;;;;;;;;27.40;38.30;;;;;;5096178;28;1021;-37
2022/06/13 02:45:08;;;;;;;;;;;27.30;38.40;;;;;;5095673;28;1021;-37
2022/06/13 02:47:37;;;;;;;;;;;27.30;38.50;;;;;;5096313;28;976;-37
2022/06/13 02:50:06;;;;;;;;;;;27.30;38.50;;;;;;5096080;28;1015;-37
2022/06/13 02:52:35;;;;;;;;;;;27.30;38.50;;;;;;5095722;28;1010;-37
2022/06/13 02:55:05;;;;;;;;;;;27.40;38.50;;;;;;5096197;28;972;-35
2022/06/13 02:57:41;;;;;;;;;;;27.40;38.40;;;;;;5096259;28;1906;-37
2022/06/13 03:00:15;;;;;;;;;;;27.40;38.50;;;;;;5096042;28;979;-36
2022/06/13 03:02:55;;;;;;;;;;;27.30;38.60;;;;;;5095633;28;988;-36
2022/06/13 03:05:44;;;;;;;;;;;27.50;38.50;;;;;;5095675;28;994;-38
2022/06/13 03:08:18;;;;;;;;;;;27.40;38.30;;;;;;5096109;28;1014;-46
2022/06/13 03:10:50;;;;;;;;;;;27.50;38.40;;;;;;5095557;28;1013;-47
2022/06/13 03:13:21;;;;;;;;;;;27.40;38.40;;;;;;5095300;28;892;-46
2022/06/13 03:15:51;;;;;;;;;;;27.50;38.40;;;;;;5095652;28;995;-46
2022/06/13 03:18:21;;;;;;;;;;;27.40;38.40;;;;;;5094829;28;1901;-46
2022/06/13 03:20:49;;;;;;;;;;;27.40;38.50;;;;;;5096160;28;998;-46
2022/06/13 03:23:21;;;;;;;;;;;27.40;38.40;;;;;;5095619;28;1852;-46
2022/06/13 03:25:51;;;;;;;;;;;27.40;38.40;;;;;;5095962;28;973;-46
2022/06/13 03:28:21;;;;;;;;;;;27.50;38.40;;;;;;5095180;28;992;-46
2022/06/13 03:30:50;;;;;;;;;;;27.50;38.50;;;;;;5095321;28;1870;-47
2022/06/13 03:36:07;;;;;;;;;;;27.50;38.40;;;;;;5095208;28;980;-47
2022/06/13 03:38:35;;;;;;;;;;;27.50;38.50;;;;;;5094868;28;1019;-47
2022/06/13 03:41:05;;;;;;;;;;;27.40;38.70;;;;;;5095260;28;1428;-47
2022/06/13 03:43:35;;;;;;;;;;;27.40;38.50;;;;;;5095044;28;1002;-46
2022/06/13 03:46:04;;;;;;;;;;;27.40;38.60;;;;;;5094989;28;1136;-46
2022/06/13 03:48:36;;;;;;;;;;;27.40;38.50;;;;;;5094938;28;932;-45
2022/06/13 03:51:05;;;;;;;;;;;27.40;38.60;;;;;;5094866;28;1005;-46
2022/06/13 03:53:37;;;;;;;;;;;27.40;38.60;;;;;;5094722;28;990;-45
2022/06/13 03:56:11;;;;;;;;;;;27.50;38.60;;;;;;5095136;28;990;-44
2022/06/13 03:58:40;;;;;;;;;;;27.50;38.50;;;;;;5094624;28;1991;-45
2022/06/13 04:01:09;;;;;;;;;;;27.50;38.50;;;;;;5095033;28;1037;-44
2022/06/13 04:03:36;;;;;;;;;;;27.60;38.50;;;;;;5096286;28;987;-45
2022/06/13 04:06:04;;;;;;;;;;;27.50;38.50;;;;;;5098942;28;863;-46
2022/06/13 04:08:33;;;;;;;;;;;27.60;38.70;;;;;;5098120;28;1002;-44
2022/06/13 04:11:15;;;;;;;;;;;27.50;38.60;;;;;;5098854;28;1098;-44
2022/06/13 04:13:50;;;;;;;;;;;27.60;38.40;;;;;;5098917;28;1006;-45
2022/06/13 04:16:35;;;;;;;;;;;27.60;38.50;;;;;;5098504;28;1065;-44
2022/06/13 04:19:08;;;;;;;;;;;27.60;38.60;;;;;;5098764;28;1723;-44
2022/06/13 04:21:38;;;;;;;;;;;27.60;38.60;;;;;;5098866;28;939;-44
2022/06/13 04:24:15;;;;;;;;;;;27.50;38.70;;;;;;5098145;28;919;-45
2022/06/13 04:26:45;;;;;;;;;;;27.60;38.70;;;;;;5098986;28;1014;-44
2022/06/13 04:29:20;;;;;;;;;;;27.60;38.70;;;;;;5099797;28;1020;-44
2022/06/13 04:31:47;;;;;;;;;;;27.60;38.80;;;;;;5100084;28;988;-44
2022/06/13 04:34:15;;;;;;;;;;;27.60;38.50;;;;;;5099659;28;983;-45
2022/06/13 04:36:43;;;;;;;;;;;27.60;38.70;;;;;;5099704;28;1980;-46
2022/06/13 04:39:11;;;;;;;;;;;27.60;38.80;;;;;;5100076;28;1026;-44
2022/06/13 04:41:40;;;;;;;;;;;27.50;38.70;;;;;;5100953;28;976;-44
2022/06/13 04:44:08;;;;;;;;;;;27.50;38.70;;;;;;5100358;28;1038;-46
2022/06/13 04:46:37;;;;;;;;;;;27.50;38.90;;;;;;5098674;28;931;-45
2022/06/13 04:49:06;;;;;;;;;;;27.60;38.80;;;;;;5098394;28;1041;-45
2022/06/13 04:51:39;;;;;;;;;;;27.60;39.00;;;;;;5097886;28;903;-45
2022/06/13 04:54:06;;;;;;;;;;;27.60;38.90;;;;;;5098356;28;1008;-47
2022/06/13 04:56:34;;;;;;;;;;;27.50;38.70;;;;;;5097589;28;1910;-47
2022/06/13 04:59:02;;;;;;;;;;;27.60;38.90;;;;;;5098584;28;1035;-47
2022/06/13 05:01:29;;;;;;;;;;;27.60;38.90;;;;;;5096065;28;983;-46
2022/06/13 05:04:00;;;;;;;;;;;27.50;38.90;;;;;;5097163;28;1376;-46
2022/06/13 05:06:30;;;;;;;;;;;27.60;38.80;;;;;;5098748;28;988;-46
2022/06/13 05:08:58;;;;;;;;;;;27.60;38.80;;;;;;5096802;28;1313;-46
2022/06/13 05:11:26;;;;;;;;;;;27.60;38.90;;;;;;5096195;28;936;-47
2022/06/13 05:13:56;;;;;;;;;;;27.40;38.90;;;;;;5095028;28;986;-47
2022/06/13 05:16:30;;;;;;;;;;;27.60;39.00;;;;;;5095327;28;1146;-47
2022/06/13 05:19:07;;;;;;;;;;;27.50;39.20;;;;;;5095239;28;1905;-46
2022/06/13 05:21:43;;;;;;;;;;;27.40;39.10;;;;;;5095150;28;984;-46
2022/06/13 05:24:18;;;;;;;;;;;27.50;39.10;;;;;;5093579;28;983;-46
2022/06/13 05:26:45;;;;;;;;;;;27.50;39.10;;;;;;5094446;28;916;-47
2022/06/13 05:29:12;;;;;;;;;;;27.60;39.10;;;;;;5093865;28;991;-46
2022/06/13 05:31:38;;;;;;;;;;;27.60;39.10;;;;;;5094397;28;1004;-47
2022/06/13 05:34:09;;;;;;;;;;;27.60;39.10;;;;;;5093282;28;1025;-46
2022/06/13 05:36:36;;;;;;;;;;;27.50;39.10;;;;;;5093330;28;975;-47
2022/06/13 05:39:06;;;;;;;;;;;27.60;39.10;;;;;;5094906;28;1910;-46
2022/06/13 05:41:32;;;;;;;;;;;27.60;39.10;;;;;;5095891;28;878;-45
2022/06/13 05:43:59;;;;;;;;;;;27.50;39.10;;;;;;5095634;28;903;-46
2022/06/13 05:46:27;;;;;;;;;;;27.50;39.30;;;;;;5096888;28;928;-46
2022/06/13 05:48:53;;;;;;;;;;;27.50;39.20;;;;;;5096499;28;947;-47
2022/06/13 05:51:22;;;;;;;;;;;27.50;39.20;;;;;;5096555;28;1018;-46
2022/06/13 05:53:48;;;;;;;;;;;27.50;39.30;;;;;;5096609;28;1003;-47
2022/06/13 05:56:15;;;;;;;;;;;27.50;39.40;;;;;;5096467;28;992;-47
2022/06/13 05:58:42;;;;;;;;;;;27.50;39.50;;;;;;5096622;28;1901;-47
2022/06/13 06:01:13;;;;;;;;;;;27.50;39.20;;;;;;5097563;28;1003;-47
2022/06/13 06:03:40;;;;;;;;;;;27.50;39.40;;;;;;5097476;28;953;-46
2022/06/13 06:06:07;;;;;;;;;;;27.50;39.30;;;;;;5095537;28;1010;-47
2022/06/13 06:08:36;;;;;;;;;;;27.50;39.40;;;;;;5094711;28;849;-47
2022/06/13 06:11:04;;;;;;;;;;;27.50;39.30;;;;;;5095664;28;1139;-47
2022/06/13 06:13:31;;;;;;;;;;;27.50;39.50;;;;;;5094362;28;1042;-46
2022/06/13 06:15:59;;;;;;;;;;;27.50;39.60;;;;;;5093498;28;1039;-47
2022/06/13 06:18:26;;;;;;;;;;;27.50;39.60;;;;;;5093297;28;1914;-47
2022/06/13 06:20:53;;;;;;;;;;;27.50;39.70;;;;;;5094209;28;966;-47
2022/06/13 06:23:19;;;;;;;;;;;27.40;39.60;;;;;;5094109;28;928;-47
2022/06/13 06:25:48;;;;;;;;;;;27.50;39.60;;;;;;5093935;28;987;-47
2022/06/13 06:28:16;;;;;;;;;;;27.50;39.60;;;;;;5093630;28;1018;-47
2022/06/13 06:30:43;;;;;;;;;;;27.40;39.60;;;;;;5093984;28;882;-46
2022/06/13 06:33:11;;;;;;;;;;;27.40;39.80;;;;;;5094823;28;1039;-46
2022/06/13 06:35:37;;;;;;;;;;;27.40;39.70;;;;;;5093253;28;963;-47
2022/06/13 06:38:04;;;;;;;;;;;27.40;39.80;;;;;;5094979;28;1910;-47
2022/06/13 06:40:31;;;;;;;;;;;27.40;39.70;;;;;;5094096;28;1425;-45
2022/06/13 06:42:59;;;;;;;;;;;27.40;40.00;;;;;;5094561;28;992;-46
2022/06/13 06:45:27;;;;;;;;;;;27.40;39.90;;;;;;5095630;28;989;-47
2022/06/13 06:47:54;;;;;;;;;;;27.40;39.80;;;;;;5094735;28;1005;-46
2022/06/13 06:50:23;;;;;;;;;;;27.50;39.60;;;;;;5093704;28;1013;-47
2022/06/13 06:52:50;;;;;;;;;;;27.40;40.00;;;;;;5093976;28;1010;-46
2022/06/13 07:00:49;;;;;;;;;;;27.50;39.70;;;;;;5095143;28;900;-47
2022/06/13 07:03:16;;;;;;;;;;;27.50;39.80;;;;;;5092749;28;905;-46
2022/06/13 07:05:43;;;;;;;;;;;27.50;40.10;;;;;;5094086;28;939;-46
2022/06/13 07:08:10;;;;;;;;;;;27.60;40.00;;;;;;5093288;28;988;-46
2022/06/13 07:10:36;;;;;;;;;;;27.50;39.80;;;;;;5093165;28;1008;-47
2022/06/13 07:13:04;;;;;;;;;;;27.50;40.00;;;;;;5092407;28;1848;-46
2022/06/13 07:15:31;;;;;;;;;;;27.50;40.10;;;;;;5092467;28;1012;-46
2022/06/13 07:17:58;;;;;;;;;;;27.50;39.80;;;;;;5090923;28;1910;-47
2022/06/13 07:20:25;;;;;;;;;;;27.50;39.90;;;;;;5093336;28;1004;-46
2022/06/13 07:22:53;;;;;;;;;;;27.50;40.00;;;;;;5092728;28;994;-46
2022/06/13 07:25:21;;;;;;;;;;;27.50;40.00;;;;;;5092962;28;1012;-47
2022/06/13 07:27:47;;;;;;;;;;;27.50;40.20;;;;;;5091924;28;980;-47
2022/06/13 07:30:16;;;;;;;;;;;27.50;40.00;;;;;;5092269;28;1001;-46
2022/06/13 07:32:43;;;;;;;;;;;27.50;39.60;;;;;;5092550;28;951;-46
2022/06/13 07:35:12;;;;;;;;;;;27.50;40.30;;;;;;5093138;28;1022;-46
2022/06/13 07:40:19;;;;;;;;;;;27.50;40.10;;;;;;5092274;28;1121;-46
2022/06/13 07:42:47;;;;;;;;;;;27.50;40.00;;;;;;5096738;28;1860;-47
2022/06/13 07:45:18;;;;;;;;;;;27.50;40.00;;;;;;5096784;28;948;-47
2022/06/13 07:47:45;;;;;;;;;;;27.50;39.90;;;;;;5096910;28;928;-48
2022/06/13 07:50:13;;;;;;;;;;;27.50;40.00;;;;;;5097340;28;1007;-47
2022/06/13 07:52:40;;;;;;;;;;;27.50;40.00;;;;;;5096407;28;1858;-47
2022/06/13 07:55:07;;;;;;;;;;;27.50;40.00;;;;;;5096057;28;990;-48
2022/06/13 07:57:33;;;;;;;;;;;27.60;40.30;;;;;;5096690;28;1980;-47
2022/06/13 08:00:01;;;;;;;;;;;27.60;40.10;;;;;;5098012;28;1003;-47
2022/06/13 08:02:30;;;;;;;;;;;27.50;40.00;;;;;;5098827;28;988;-47
2022/06/13 08:04:57;;;;;;;;;;;27.60;40.00;;;;;;5098535;28;940;-47
2022/06/13 08:07:24;;;;;;;;;;;27.60;40.30;;;;;;5098285;28;834;-47
2022/06/13 08:09:51;;;;;;;;;;;27.60;40.30;;;;;;5098588;28;1029;-46
2022/06/13 08:12:18;;;;;;;;;;;27.60;40.00;;;;;;5097950;28;937;-46
2022/06/13 08:14:47;;;;;;;;;;;27.50;40.00;;;;;;5099077;28;970;-47
2022/06/13 08:17:13;;;;;;;;;;;27.60;40.00;;;;;;5098526;28;1259;-47
2022/06/13 08:19:42;;;;;;;;;;;27.70;40.90;;;;;;5096542;28;1981;-46
2022/06/13 08:22:08;;;;;;;;;;;27.70;39.90;;;;;;5096101;28;936;-46
2022/06/13 08:24:35;;;;;;;;;;;27.70;39.80;;;;;;5095414;28;1000;-47
2022/06/13 08:27:02;;;;;;;;;;;27.70;39.90;;;;;;5095621;28;920;-47
2022/06/13 08:29:28;;;;;;;;;;;27.70;39.60;;;;;;5096503;28;992;-46
2022/06/13 08:31:55;;;;;;;;;;;27.70;39.70;;;;;;5096212;28;856;-45
2022/06/13 08:34:22;;;;;;;;;;;27.70;39.80;;;;;;5096266;28;967;-47
2022/06/13 08:36:51;;;;;;;;;;;27.70;39.70;;;;;;5095671;28;1003;-46
2022/06/13 08:39:18;;;;;;;;;;;27.70;39.70;;;;;;5096070;28;1897;-46
2022/06/13 08:41:51;;;;;;;;;;;27.70;39.70;;;;;;5095578;28;935;-47
2022/06/13 08:44:25;;;;;;;;;;;27.80;39.70;;;;;;5095656;28;1006;-46
2022/06/13 08:46:58;;;;;;;;;;;27.70;39.90;;;;;;5096023;28;925;-46
2022/06/13 08:49:32;;;;;;;;;;;27.70;39.70;;;;;;5096379;28;998;-46
2022/06/13 08:52:04;;;;;;;;;;;27.70;39.70;;;;;;5095874;28;925;-46
2022/06/13 08:54:34;;;;;;;;;;;27.70;39.60;;;;;;5095791;28;1015;-46
2022/06/13 08:57:03;;;;;;;;;;;27.70;39.70;;;;;;5094940;28;931;-47
2022/06/13 08:59:34;;;;;;;;;;;27.70;39.80;;;;;;5096150;28;1910;-46
2022/06/13 09:02:03;;;;;;;;;;;27.80;39.90;;;;;;5095180;28;908;-46
2022/06/13 09:04:32;;;;;;;;;;;27.80;39.80;;;;;;5095628;28;989;-47
2022/06/13 09:07:03;;;;;;;;;;;27.80;39.80;;;;;;5095628;28;1060;-46
2022/06/13 09:09:33;;;;;;;;;;;27.80;39.70;;;;;;5098594;28;997;-49
2022/06/13 09:12:03;;;;;;;;;;;27.70;39.60;;;;;;5099687;28;976;-48
2022/06/13 09:14:32;;;;;;;;;;;27.70;39.70;;;;;;5097912;28;1022;-48
2022/06/13 09:17:02;;;;;;;;;;;27.70;39.90;;;;;;5099597;28;1103;-48
2022/06/13 09:19:32;;;;;;;;;;;27.70;39.80;;;;;;5099713;28;1898;-48
2022/06/13 09:22:04;;;;;;;;;;;27.80;39.70;;;;;;5099884;28;841;-48
2022/06/13 09:24:35;;;;;;;;;;;27.80;39.70;;;;;;5098471;28;940;-48
2022/06/13 09:27:04;;;;;;;;;;;27.80;39.70;;;;;;5099298;28;1156;-48
2022/06/13 09:29:33;;;;;;;;;;;27.80;39.70;;;;;;5099877;28;1034;-49
2022/06/13 09:32:03;;;;;;;;;;;27.70;39.70;;;;;;5099776;28;940;-49
2022/06/13 09:34:33;;;;;;;;;;;27.80;39.80;;;;;;5099608;28;1000;-49
2022/06/13 09:37:05;;;;;;;;;;;27.80;39.70;;;;;;5099397;28;1031;-48
2022/06/13 09:39:32;;;;;;;;;;;27.90;39.70;;;;;;5099493;28;1987;-48
2022/06/13 09:42:03;;;;;;;;;;;27.80;39.70;;;;;;5099891;28;888;-48
2022/06/13 09:44:39;;;;;;;;;;;27.80;39.90;;;;;;5098162;28;1032;-48
2022/06/13 09:47:11;;;;;;;;;;;27.70;39.70;;;;;;5099115;28;987;-50
2022/06/13 09:49:44;;;;;;;;;;;27.80;40.90;;;;;;5099209;28;943;-47
2022/06/13 09:52:17;;;;;;;;;;;27.70;39.70;;;;;;5098403;28;967;-48
2022/06/13 09:54:46;;;;;;;;;;;27.70;39.90;;;;;;5099223;28;976;-49
2022/06/13 09:57:16;;;;;;;;;;;27.80;40.00;;;;;;5097982;28;1035;-48
2022/06/13 10:00:03;;;;;;;;;;;27.80;40.00;;;;;;5096566;28;1959;-44
2022/06/13 10:02:35;;;;;;;;;;;28.00;39.90;;;;;;5093001;28;968;-43
2022/06/13 10:05:05;;;;;;;;;;;28.00;37.60;;;;;;5093533;28;908;-44
2022/06/13 10:07:35;;;;;;;;;;;27.90;36.90;;;;;;5094457;28;959;-45
2022/06/13 10:10:06;;;;;;;;;;;27.90;36.50;;;;;;5093125;28;1004;-44
2022/06/13 10:12:35;;;;;;;;;;;27.80;36.10;;;;;;5093865;28;977;-45
2022/06/13 10:15:08;;;;;;;;;;;27.70;35.70;;;;;;5094126;28;1039;-44
2022/06/13 10:17:46;;;;;;;;;;;27.70;35.80;;;;;;5092926;28;1020;-45
2022/06/13 10:20:18;;;;;;;;;;;27.70;35.60;;;;;;5094372;28;1894;-45
2022/06/13 10:22:51;;;;;;;;;;;27.70;35.10;;;;;;5094582;28;864;-45
2022/06/13 10:25:25;;;;;;;;;;;27.60;35.30;;;;;;5093905;28;990;-46
2022/06/13 10:28:02;;;;;;;;;;;27.50;36.10;;;;;;5094269;28;1016;-47
2022/06/13 10:30:38;;;;;;;;;;;27.50;36.50;;;;;;5093870;28;1009;-46
2022/06/13 10:33:11;;;;;;;;;;;27.50;36.90;;;;;;5092613;28;996;-46
2022/06/13 10:35:45;;;;;;;;;;;27.70;36.20;;;;;;5093214;28;1012;-46
2022/06/13 10:38:25;;;;;;;;;;;27.60;36.40;;;;;;5078110;28;866;-46
2022/06/13 10:40:52;;;;;;;;;;;27.60;36.90;;;;;;5076854;28;889;-47
2022/06/13 10:43:19;;;;;;;;;;;27.60;36.80;;;;;;5084371;28;996;-46
2022/06/13 10:45:46;;;;;;;;;;;27.60;37.10;;;;;;5086262;28;988;-46
2022/06/13 10:48:17;;;;;;;;;;;27.50;36.90;;;;;;5095805;28;928;-46
2022/06/13 10:50:46;;;;;;;;;;;27.60;36.80;;;;;;5090932;28;980;-47
2022/06/13 10:53:17;;;;;;;;;;;27.50;37.30;;;;;;5094087;28;1056;-43
2022/06/13 10:55:45;;;;;;;;;;;27.70;36.50;;;;;;5094372;28;1000;-43
2022/06/13 10:58:16;;;;;;;;;;;27.70;35.00;;;;;;5093543;28;967;-42
2022/06/13 11:01:01;;;;;;;;;;;27.60;34.80;;;;;;5092689;28;2066;-42
2022/06/13 11:03:28;;;;;;;;;;;27.50;33.40;;;;;;5094702;28;999;-37
2022/06/13 11:05:56;;;;;;;;;;;27.40;32.60;;;;;;5092857;28;1011;-39
2022/06/13 11:08:24;;;;;;;;;;;27.40;32.40;;;;;;5093876;28;920;-37
2022/06/13 11:10:55;;;;;;;;;;;27.30;31.10;;;;;;5091404;28;1259;-41
2022/06/13 11:13:27;;;;;;;;;;;27.30;31.10;;;;;;5092154;28;957;-38
2022/06/13 11:24:16;;;;;;;;;;;27.10;32.30;;;;;;5091303;28;1030;-40
2022/06/13 11:29:28;;;;;;;;;;;27.00;32.30;;;;;;5091645;28;982;-39
2022/06/13 11:31:56;;;;;;;;;;;26.90;32.20;;;;;;5093533;28;980;-36
2022/06/13 11:34:26;;;;;;;;;;;26.90;31.90;;;;;;5094904;28;904;-40
2022/06/13 11:37:00;;;;;;;;;;;26.90;33.10;;;;;;5093789;28;984;-41
2022/06/13 11:39:33;;;;;;;;;;;26.80;31.80;;;;;;5094608;28;1984;-35
2022/06/13 11:42:00;;;;;;;;;;;26.80;30.60;;;;;;5095376;28;932;-39
2022/06/13 11:44:27;;;;;;;;;;;26.80;30.70;;;;;;5094210;28;1246;-39
2022/06/13 11:46:56;;;;;;;;;;;26.80;31.50;;;;;;5094149;28;1085;-38
2022/06/13 11:49:34;;;;;;;;;;;26.80;32.20;;;;;;5096095;28;932;-42
2022/06/13 11:52:03;;;;;;;;;;;26.80;32.50;;;;;;5095334;28;1030;-38
2022/06/13 11:54:33;;;;;;;;;;;26.90;32.60;;;;;;5094945;28;987;-37
2022/06/13 11:57:27;;;;;;;;;;;27.00;32.60;;;;;;5092660;28;980;-36
2022/06/13 11:59:57;;;;;;;;;;;27.00;32.40;;;;;;5057227;28;1910;-40
2022/06/13 12:02:25;;;;;;;;;;;27.00;32.50;;;;;;5093897;28;911;-42
2022/06/13 12:04:54;;;;;;;;;;;27.00;32.40;;;;;;5093980;28;1032;-36
2022/06/13 12:07:22;;;;;;;;;;;27.00;32.60;;;;;;5092549;28;992;-36
2022/06/13 12:09:52;;;;;;;;;;;27.00;32.40;;;;;;5093210;28;1004;-42
2022/06/13 12:12:18;;;;;;;;;;;27.00;32.00;;;;;;5092874;28;906;-41
2022/06/13 12:14:45;;;;;;;;;;;27.00;32.30;;;;;;5092293;28;1148;-41
2022/06/13 12:17:17;;;;;;;;;;;27.00;32.30;;;;;;5092400;28;1334;-42
2022/06/13 12:19:49;;;;;;;;;;;27.00;32.40;;;;;;5092293;28;1985;-39
2022/06/13 12:22:20;;;;;;;;;;;27.00;32.30;;;;;;5092206;28;976;-37
2022/06/13 12:24:55;;;;;;;;;;;26.90;32.10;;;;;;5093168;28;934;-42
2022/06/13 12:27:26;;;;;;;;;;;27.00;32.40;;;;;;5096624;28;1028;-42
2022/06/13 12:30:00;;;;;;;;;;;27.00;32.20;;;;;;5095985;28;1020;-42
2022/06/13 12:32:30;;;;;;;;;;;26.90;32.70;;;;;;5094091;28;1011;-41
2022/06/13 12:35:03;;;;;;;;;;;27.00;34.00;;;;;;5095076;28;1038;-37
2022/06/13 12:37:35;;;;;;;;;;;27.00;33.40;;;;;;5096104;28;1016;-39
2022/06/13 12:40:13;;;;;;;;;;;27.10;34.50;;;;;;5095853;28;1981;-38
2022/06/13 12:42:49;;;;;;;;;;;27.10;35.10;;;;;;5094625;28;928;-37
2022/06/13 12:45:34;;;;;;;;;;;27.10;35.30;;;;;;5093903;28;1005;-37
2022/06/13 12:48:16;;;;;;;;;;;27.10;36.10;;;;;;5084036;28;1082;-37
2022/06/13 12:50:50;;;;;;;;;;;27.00;36.40;;;;;;5077171;28;1332;-36
2022/06/13 12:53:24;;;;;;;;;;;27.10;37.10;;;;;;5073305;28;937;-36
2022/06/13 12:55:54;;;;;;;;;;;27.20;38.30;;;;;;5073517;28;1094;-36
2022/06/13 12:58:28;;;;;;;;;;;27.10;37.10;;;;;;5072855;28;996;-37
2022/06/13 13:01:02;;;;;;;;;;;27.10;38.50;;;;;;5072113;28;1921;-36
2022/06/13 13:03:48;;;;;;;;;;;27.20;38.60;;;;;;5074246;28;1024;-36
2022/06/13 13:06:21;;;;;;;;;;;27.20;39.00;;;;;;5073300;28;1075;-37
2022/06/13 13:08:55;;;;;;;;;;;27.30;38.90;;;;;;5074029;28;1013;-36
2022/06/13 13:11:29;;;;;;;;;;;27.30;38.00;;;;;;5075224;28;944;-37
2022/06/13 13:14:01;;;;;;;;;;;27.40;37.70;;;;;;5073985;28;996;-37
2022/06/13 13:16:35;;;;;;;;;;;27.40;38.20;;;;;;5072899;28;1040;-37
2022/06/13 13:19:20;;;;;;;;;;;27.30;38.10;;;;;;5072940;28;1002;-37
2022/06/13 13:21:51;;;;;;;;;;;27.40;37.00;;;;;;5074520;28;1016;-36
2022/06/13 13:24:29;;;;;;;;;;;27.30;36.30;;;;;;5074282;28;1005;-36
2022/06/13 13:26:59;;;;;;;;;;;27.30;36.00;;;;;;5072972;28;1008;-36
2022/06/13 13:29:30;;;;;;;;;;;27.40;34.70;;;;;;5073109;28;976;-36
2022/06/13 13:32:01;;;;;;;;;;;27.30;35.00;;;;;;5071669;28;1013;-37
2022/06/13 13:34:34;;;;;;;;;;;27.40;33.60;;;;;;5072780;28;967;-36
2022/06/13 13:37:06;;;;;;;;;;;27.30;35.40;;;;;;5072131;28;897;-36
2022/06/13 13:39:36;;;;;;;;;;;27.30;34.10;;;;;;5073444;28;1914;-37
2022/06/13 13:42:08;;;;;;;;;;;27.30;34.20;;;;;;5073131;28;1077;-37
2022/06/13 13:44:36;;;;;;;;;;;27.30;34.10;;;;;;5073204;28;1014;-36
2022/06/13 13:47:06;;;;;;;;;;;27.30;34.40;;;;;;5073585;28;984;-37
2022/06/13 13:49:36;;;;;;;;;;;27.30;34.10;;;;;;5072880;28;1016;-36
2022/06/13 13:52:08;;;;;;;;;;;27.30;33.80;;;;;;5073971;28;882;-37
2022/06/13 13:54:37;;;;;;;;;;;27.30;33.90;;;;;;5074292;28;1022;-37
2022/06/13 13:57:06;;;;;;;;;;;27.30;33.70;;;;;;5073747;28;1029;-37
2022/06/13 13:59:35;;;;;;;;;;;27.30;34.00;;;;;;5072507;28;1985;-36
2022/06/13 14:02:13;;;;;;;;;;;27.30;33.50;;;;;;5073072;28;862;-38
2022/06/13 14:04:49;;;;;;;;;;;27.40;34.90;;;;;;5072894;28;1000;-37
2022/06/13 14:07:37;;;;;;;;;;;27.50;34.20;;;;;;5073155;28;905;-39
2022/06/13 14:10:06;;;;;;;;;;;27.50;32.10;;;;;;5066853;28;1265;-36
2022/06/13 14:12:33;;;;;;;;;;;27.40;33.40;;;;;;5072845;28;1017;-37
2022/06/13 14:15:08;;;;;;;;;;;27.30;33.30;;;;;;5072997;28;996;-36
2022/06/13 14:17:41;;;;;;;;;;;27.40;33.60;;;;;;5072683;28;1241;-37
2022/06/13 14:20:14;;;;;;;;;;;27.30;33.20;;;;;;5072363;28;1914;-36
2022/06/13 14:22:44;;;;;;;;;;;27.30;33.50;;;;;;5072457;28;940;-36
2022/06/13 14:25:21;;;;;;;;;;;27.30;33.50;;;;;;5073391;28;1019;-36
2022/06/13 14:27:52;;;;;;;;;;;27.40;33.20;;;;;;5072125;28;993;-36
2022/06/13 14:33:05;;;;;;;;;;;27.40;33.10;;;;;;5070930;28;643;-37
2022/06/13 14:35:45;;;;;;;;;;;27.50;32.90;;;;;;5072287;28;1004;-37
2022/06/13 14:38:21;;;;;;;;;;;27.60;32.20;;;;;;5072823;28;999;-37
2022/06/13 14:40:53;;;;;;;;;;;27.40;33.00;;;;;;5073462;28;1894;-36
2022/06/13 14:43:25;;;;;;;;;;;27.50;32.10;;;;;;5072324;28;1031;-37
2022/06/13 14:45:54;;;;;;;;;;;27.40;32.10;;;;;;5071244;28;976;-36
2022/06/13 14:48:26;;;;;;;;;;;27.50;31.50;;;;;;5072510;28;868;-40
2022/06/13 14:51:23;;;;;;;;;;;27.50;31.40;;;;;;5072541;28;1044;-37
2022/06/13 14:53:51;;;;;;;;;;;27.50;31.20;;;;;;4988935;28;997;-36
2022/06/13 14:56:32;;;;;;;;;;;27.40;31.10;;;;;;5052899;28;1028;-36
2022/06/13 14:59:02;;;;;;;;;;;27.50;30.90;;;;;;5071869;28;1034;-36
2022/06/13 15:01:30;;;;;;;;;;;27.60;31.00;;;;;;5073387;28;1906;-38
2022/06/13 15:04:30;;;;;;;;;;;27.50;31.50;;;;;;5073542;28;976;-38
2022/06/13 15:07:16;;;;;;;;;;;27.50;31.60;;;;;;5072962;28;952;-42
2022/06/13 15:09:45;;;;;;;;;;;27.60;31.30;;;;;;5072484;28;956;-43
2022/06/13 15:12:15;;;;;;;;;;;27.50;31.80;;;;;;5074293;28;941;-43
2022/06/13 15:14:44;;;;;;;;;;;27.50;31.70;;;;;;5075217;28;987;-43
2022/06/13 15:17:11;;;;;;;;;;;27.50;31.70;;;;;;5074768;28;1155;-43
2022/06/13 15:19:40;;;;;;;;;;;27.60;31.40;;;;;;5075086;28;1010;-40